Terminal Aerodrome Forecast
Issued by NWS Lake Charles, LA

Home | Current Version | Previous Version | Text Only | Print | Product List | Glossary On
Versions: 1 2 3 4 5 6 7 8 9 10 11 12 13 14 15 16 17 18 19 20
000
FTUS44 KLCH 192300
TAFLFT
TAF
KLFT 192320Z 2000/2024 09006KT P6SM SCT120
     FM200300 06003KT P6SM FEW025
      TEMPO 2009/2013 5SM BR
     FM201500 07010KT P6SM SCT035=

USA.gov is the U.S. government's official web portal to all federal, state and local government web resources and services.